BAW54DG EGKK-EGJJ
Flight info
| Callsign | BAW54DG |
|---|---|
| Flight time | 0h 35m |
| Altitude | 20000 |
| Route | IMVUR N63 LELNA |
| Aircraft | A320/M-SDE3FGHIRWY/LB1 |
Departure
| Time | 2026-05-04 20:31 |
|---|---|
| Airport | London Gatwick Airport (EGKK) |
Arrival
| Time | 2026-05-04 21:07 |
|---|---|
| Airport | Jersey Airport (EGJJ) |
| Time | Latitude | Longitude | Altitude | Speed | Heading |
|---|---|---|---|---|---|
| 2026-05-04 19:41 | 51.15768 | -0.16755 | 206 ft | 0 kts | 348° |
| 2026-05-04 19:58 | 51.15767 | -0.16755 | 207 ft | 0 kts | 348° |
| 2026-05-04 19:59 | 51.15768 | -0.16755 | 207 ft | 0 kts | 348° |
| 2026-05-04 20:04 | 51.15756 | -0.16751 | 212 ft | 2 kts | 348° |
| 2026-05-04 20:05 | 51.15740 | -0.16745 | 213 ft | 2 kts | 348° |
| 2026-05-04 20:05 | 51.15724 | -0.16740 | 210 ft | 2 kts | 348° |
| 2026-05-04 20:05 | 51.15708 | -0.16734 | 209 ft | 2 kts | 348° |
| 2026-05-04 20:05 | 51.15692 | -0.16729 | 206 ft | 2 kts | 337° |
| 2026-05-04 20:06 | 51.15682 | -0.16726 | 206 ft | 2 kts | 264° |
| 2026-05-04 20:06 | 51.15682 | -0.16730 | 206 ft | 0 kts | 264° |
| 2026-05-04 20:14 | 51.15681 | -0.16754 | 212 ft | 6 kts | 265° |
| 2026-05-04 20:14 | 51.15673 | -0.16834 | 215 ft | 8 kts | 258° |
| 2026-05-04 20:15 | 51.15658 | -0.16943 | 211 ft | 12 kts | 257° |
| 2026-05-04 20:15 | 51.15639 | -0.17081 | 206 ft | 13 kts | 257° |
| 2026-05-04 20:15 | 51.15620 | -0.17209 | 210 ft | 4 kts | 256° |
| 2026-05-04 20:15 | 51.15616 | -0.17233 | 214 ft | 2 kts | 256° |
| 2026-05-04 20:16 | 51.15610 | -0.17273 | 210 ft | 6 kts | 256° |
| 2026-05-04 20:16 | 51.15598 | -0.17351 | 209 ft | 9 kts | 257° |
| 2026-05-04 20:16 | 51.15565 | -0.17451 | 215 ft | 12 kts | 227° |
| 2026-05-04 20:16 | 51.15528 | -0.17591 | 211 ft | 16 kts | 258° |
| 2026-05-04 20:17 | 51.15503 | -0.17774 | 212 ft | 18 kts | 258° |
| 2026-05-04 20:17 | 51.15475 | -0.17979 | 213 ft | 16 kts | 258° |
| 2026-05-04 20:17 | 51.15464 | -0.18061 | 211 ft | 5 kts | 258° |
| 2026-05-04 20:17 | 51.15463 | -0.18067 | 212 ft | 0 kts | 259° |
| 2026-05-04 20:19 | 51.15463 | -0.18069 | 208 ft | 1 kts | 259° |
| 2026-05-04 20:19 | 51.15459 | -0.18099 | 213 ft | 5 kts | 259° |
| 2026-05-04 20:19 | 51.15433 | -0.18157 | 208 ft | 8 kts | 201° |
| 2026-05-04 20:19 | 51.15340 | -0.18132 | 213 ft | 18 kts | 167° |
| 2026-05-04 20:20 | 51.15217 | -0.18120 | 215 ft | 17 kts | 219° |
| 2026-05-04 20:20 | 51.15187 | -0.18312 | 217 ft | 19 kts | 261° |
| 2026-05-04 20:20 | 51.15160 | -0.18520 | 215 ft | 19 kts | 257° |
| 2026-05-04 20:20 | 51.15130 | -0.18737 | 206 ft | 21 kts | 258° |
| 2026-05-04 20:21 | 51.15101 | -0.18960 | 216 ft | 21 kts | 257° |
| 2026-05-04 20:21 | 51.15069 | -0.19185 | 209 ft | 21 kts | 257° |
| 2026-05-04 20:21 | 51.14994 | -0.19726 | 207 ft | 26 kts | 258° |
| 2026-05-04 20:22 | 51.14956 | -0.20008 | 216 ft | 26 kts | 257° |
| 2026-05-04 20:22 | 51.14917 | -0.20286 | 206 ft | 26 kts | 257° |
| 2026-05-04 20:22 | 51.14877 | -0.20567 | 208 ft | 26 kts | 257° |
| 2026-05-04 20:22 | 51.14840 | -0.20840 | 215 ft | 25 kts | 258° |
| 2026-05-04 20:23 | 51.14809 | -0.21060 | 212 ft | 20 kts | 257° |
| 2026-05-04 20:23 | 51.14783 | -0.21195 | 211 ft | 9 kts | 255° |
| 2026-05-04 20:23 | 51.14771 | -0.21275 | 207 ft | 7 kts | 257° |
| 2026-05-04 20:23 | 51.14758 | -0.21358 | 207 ft | 8 kts | 252° |
| 2026-05-04 20:24 | 51.14717 | -0.21407 | 216 ft | 8 kts | 184° |
| 2026-05-04 20:24 | 51.14685 | -0.21395 | 208 ft | 0 kts | 153° |
| 2026-05-04 20:26 | 51.14685 | -0.21394 | 208 ft | 0 kts | 153° |
| 2026-05-04 20:26 | 51.14678 | -0.21387 | 211 ft | 3 kts | 146° |
| 2026-05-04 20:26 | 51.14661 | -0.21360 | 213 ft | 4 kts | 137° |
| 2026-05-04 20:26 | 51.14633 | -0.21336 | 209 ft | 5 kts | 158° |
| 2026-05-04 20:27 | 51.14624 | -0.21333 | 211 ft | 1 kts | 168° |
| 2026-05-04 20:27 | 51.14620 | -0.21331 | 210 ft | 0 kts | 168° |
| 2026-05-04 20:29 | 51.14615 | -0.21330 | 209 ft | 3 kts | 168° |
| 2026-05-04 20:29 | 51.14567 | -0.21305 | 211 ft | 11 kts | 153° |
| 2026-05-04 20:29 | 51.14522 | -0.21169 | 208 ft | 14 kts | 81° |
| 2026-05-04 20:30 | 51.14541 | -0.21032 | 213 ft | 12 kts | 78° |
| 2026-05-04 20:30 | 51.14576 | -0.20777 | 210 ft | 46 kts | 77° |
| 2026-05-04 20:30 | 51.14685 | -0.19993 | 217 ft | 98 kts | 77° |
| 2026-05-04 20:30 | 51.14862 | -0.18687 | 210 ft | 142 kts | 77° |
| 2026-05-04 20:31 | 51.15071 | -0.17081 | 685 ft | 143 kts | 77° |
| 2026-05-04 20:31 | 51.15280 | -0.15527 | 1349 ft | 145 kts | 77° |
| 2026-05-04 20:31 | 51.15499 | -0.13948 | 1985 ft | 148 kts | 76° |
| 2026-05-04 20:31 | 51.15730 | -0.12289 | 2446 ft | 159 kts | 76° |
| 2026-05-04 20:32 | 51.15980 | -0.10497 | 2872 ft | 172 kts | 76° |
| 2026-05-04 20:32 | 51.16158 | -0.09216 | 3107 ft | 185 kts | 76° |
| 2026-05-04 20:32 | 51.16461 | -0.07145 | 3483 ft | 199 kts | 70° |
| 2026-05-04 20:32 | 51.17309 | -0.05383 | 3966 ft | 211 kts | 28° |
| 2026-05-04 20:33 | 51.18763 | -0.04952 | 4663 ft | 223 kts | 352° |
| 2026-05-04 20:33 | 51.20331 | -0.05438 | 5384 ft | 234 kts | 348° |
| 2026-05-04 20:33 | 51.21841 | -0.06379 | 6375 ft | 234 kts | 320° |
| 2026-05-04 20:33 | 51.22725 | -0.08507 | 7280 ft | 236 kts | 283° |
| 2026-05-04 20:34 | 51.22701 | -0.11155 | 7988 ft | 248 kts | 261° |
| 2026-05-04 20:34 | 51.22390 | -0.13965 | 8594 ft | 266 kts | 259° |
| 2026-05-04 20:34 | 51.22025 | -0.16946 | 9221 ft | 281 kts | 258° |
| 2026-05-04 20:34 | 51.21639 | -0.20054 | 9979 ft | 289 kts | 258° |
| 2026-05-04 20:35 | 51.21251 | -0.23221 | 10772 ft | 293 kts | 259° |
| 2026-05-04 20:35 | 51.20864 | -0.26424 | 11561 ft | 296 kts | 259° |
| 2026-05-04 20:35 | 51.20477 | -0.29680 | 12342 ft | 301 kts | 259° |
| 2026-05-04 20:35 | 51.20090 | -0.32988 | 13087 ft | 306 kts | 259° |
| 2026-05-04 20:36 | 51.19692 | -0.36348 | 13842 ft | 311 kts | 258° |
| 2026-05-04 20:36 | 51.19262 | -0.39748 | 14502 ft | 315 kts | 258° |
| 2026-05-04 20:36 | 51.18809 | -0.43188 | 15203 ft | 318 kts | 257° |
| 2026-05-04 20:36 | 51.18345 | -0.46664 | 15921 ft | 320 kts | 257° |
| 2026-05-04 20:37 | 51.17879 | -0.50153 | 16628 ft | 323 kts | 257° |
| 2026-05-04 20:37 | 51.17340 | -0.53637 | 17330 ft | 325 kts | 250° |
| 2026-05-04 20:37 | 51.16478 | -0.57017 | 17819 ft | 335 kts | 246° |
| 2026-05-04 20:37 | 51.15558 | -0.60459 | 18140 ft | 349 kts | 246° |
| 2026-05-04 20:38 | 51.14584 | -0.64095 | 18382 ft | 364 kts | 246° |
| 2026-05-04 20:38 | 51.13568 | -0.67884 | 18553 ft | 380 kts | 246° |
| 2026-05-04 20:38 | 51.12512 | -0.71829 | 18687 ft | 395 kts | 246° |
| 2026-05-04 20:38 | 51.11415 | -0.75923 | 18875 ft | 406 kts | 246° |
| 2026-05-04 20:39 | 51.10300 | -0.80085 | 19266 ft | 411 kts | 246° |
| 2026-05-04 20:39 | 51.09173 | -0.84290 | 19776 ft | 412 kts | 246° |
| 2026-05-04 20:39 | 51.08046 | -0.88482 | 20031 ft | 412 kts | 245° |
| 2026-05-04 20:39 | 51.06917 | -0.92669 | 20056 ft | 411 kts | 245° |
| 2026-05-04 20:40 | 51.05790 | -0.96843 | 20026 ft | 411 kts | 245° |
| 2026-05-04 20:40 | 51.04660 | -1.01023 | 20026 ft | 411 kts | 245° |
| 2026-05-04 20:40 | 51.03527 | -1.05204 | 20030 ft | 412 kts | 245° |
| 2026-05-04 20:40 | 51.02392 | -1.09385 | 20029 ft | 412 kts | 245° |
| 2026-05-04 20:41 | 51.01257 | -1.13559 | 20029 ft | 412 kts | 245° |
| 2026-05-04 20:41 | 51.00118 | -1.17735 | 20028 ft | 412 kts | 245° |
| 2026-05-04 20:41 | 50.98976 | -1.21911 | 20029 ft | 412 kts | 245° |
| 2026-05-04 20:41 | 50.97831 | -1.26090 | 20029 ft | 413 kts | 245° |
| 2026-05-04 20:42 | 50.96477 | -1.30093 | 20035 ft | 412 kts | 235° |
| 2026-05-04 20:42 | 50.94700 | -1.33629 | 20035 ft | 410 kts | 224° |
| 2026-05-04 20:42 | 50.92551 | -1.36580 | 20031 ft | 408 kts | 214° |
| 2026-05-04 20:42 | 50.90109 | -1.38862 | 20023 ft | 407 kts | 205° |
| 2026-05-04 20:43 | 50.87571 | -1.40862 | 20019 ft | 408 kts | 205° |
| 2026-05-04 20:43 | 50.85063 | -1.42849 | 20033 ft | 408 kts | 205° |
| 2026-05-04 20:43 | 50.82525 | -1.44868 | 20022 ft | 408 kts | 205° |
| 2026-05-04 20:43 | 50.79984 | -1.46894 | 20028 ft | 408 kts | 205° |
| 2026-05-04 20:44 | 50.77443 | -1.48918 | 20027 ft | 408 kts | 205° |
| 2026-05-04 20:44 | 50.74904 | -1.50936 | 20027 ft | 408 kts | 205° |
| 2026-05-04 20:44 | 50.72366 | -1.52953 | 20026 ft | 409 kts | 205° |
| 2026-05-04 20:44 | 50.69834 | -1.54987 | 20031 ft | 409 kts | 205° |
| 2026-05-04 20:45 | 50.67295 | -1.57013 | 20020 ft | 408 kts | 205° |
| 2026-05-04 20:45 | 50.64754 | -1.59018 | 20028 ft | 408 kts | 205° |
| 2026-05-04 20:45 | 50.62209 | -1.61017 | 20023 ft | 409 kts | 205° |
| 2026-05-04 20:45 | 50.59665 | -1.63011 | 20028 ft | 409 kts | 205° |
| 2026-05-04 20:46 | 50.57122 | -1.65003 | 20031 ft | 409 kts | 205° |
| 2026-05-04 20:46 | 50.54576 | -1.66996 | 20026 ft | 409 kts | 205° |
| 2026-05-04 20:46 | 50.52028 | -1.68990 | 20025 ft | 409 kts | 205° |
| 2026-05-04 20:46 | 50.49482 | -1.70982 | 20023 ft | 409 kts | 205° |
| 2026-05-04 20:47 | 50.46943 | -1.72970 | 20021 ft | 408 kts | 205° |
| 2026-05-04 20:47 | 50.44401 | -1.74960 | 20022 ft | 408 kts | 205° |
| 2026-05-04 20:47 | 50.41859 | -1.76949 | 20027 ft | 408 kts | 205° |
| 2026-05-04 20:47 | 50.39318 | -1.78937 | 20029 ft | 408 kts | 205° |
| 2026-05-04 20:48 | 50.36776 | -1.80924 | 20016 ft | 408 kts | 205° |
| 2026-05-04 20:48 | 50.34235 | -1.82905 | 20023 ft | 408 kts | 204° |
| 2026-05-04 20:48 | 50.31729 | -1.84849 | 20019 ft | 407 kts | 204° |
| 2026-05-04 20:48 | 50.29190 | -1.86814 | 20021 ft | 407 kts | 204° |
| 2026-05-04 20:49 | 50.26648 | -1.88784 | 20024 ft | 407 kts | 204° |
| 2026-05-04 20:49 | 50.24113 | -1.90749 | 20028 ft | 407 kts | 204° |
| 2026-05-04 20:49 | 50.21571 | -1.92714 | 20024 ft | 407 kts | 204° |
| 2026-05-04 20:49 | 50.19033 | -1.94674 | 20027 ft | 407 kts | 204° |
| 2026-05-04 20:50 | 50.16499 | -1.96634 | 20029 ft | 407 kts | 204° |
| 2026-05-04 20:50 | 50.13963 | -1.98589 | 20025 ft | 406 kts | 204° |
| 2026-05-04 20:50 | 50.11429 | -2.00535 | 20015 ft | 406 kts | 204° |
| 2026-05-04 20:50 | 50.08895 | -2.02479 | 19724 ft | 405 kts | 204° |
| 2026-05-04 20:51 | 50.06377 | -2.04412 | 19372 ft | 402 kts | 204° |
| 2026-05-04 20:51 | 50.03870 | -2.06336 | 19014 ft | 401 kts | 204° |
| 2026-05-04 20:51 | 50.01370 | -2.08253 | 18658 ft | 401 kts | 204° |
| 2026-05-04 20:51 | 49.98867 | -2.10169 | 18307 ft | 400 kts | 204° |
| 2026-05-04 20:52 | 49.96394 | -2.12063 | 17905 ft | 390 kts | 203° |
| 2026-05-04 20:52 | 49.93902 | -2.13446 | 17528 ft | 374 kts | 193° |
| 2026-05-04 20:52 | 49.91301 | -2.14299 | 17142 ft | 388 kts | 189° |
| 2026-05-04 20:52 | 49.88684 | -2.15052 | 16735 ft | 375 kts | 188° |
| 2026-05-04 20:53 | 49.86185 | -2.15755 | 16350 ft | 355 kts | 188° |
| 2026-05-04 20:53 | 49.83811 | -2.16412 | 15939 ft | 338 kts | 188° |
| 2026-05-04 20:53 | 49.81541 | -2.17038 | 15507 ft | 325 kts | 188° |
| 2026-05-04 20:53 | 49.79349 | -2.17643 | 15069 ft | 315 kts | 188° |
| 2026-05-04 20:54 | 49.77222 | -2.18231 | 14635 ft | 306 kts | 188° |
| 2026-05-04 20:54 | 49.75151 | -2.18805 | 14209 ft | 299 kts | 188° |
| 2026-05-04 20:54 | 49.73122 | -2.19367 | 13777 ft | 293 kts | 188° |
| 2026-05-04 20:54 | 49.71130 | -2.19937 | 13298 ft | 288 kts | 191° |
| 2026-05-04 20:55 | 49.69197 | -2.20663 | 12827 ft | 284 kts | 193° |
| 2026-05-04 20:55 | 49.67316 | -2.21439 | 12378 ft | 283 kts | 193° |
| 2026-05-04 20:55 | 49.65392 | -2.22261 | 11897 ft | 282 kts | 194° |
| 2026-05-04 20:55 | 49.63516 | -2.23065 | 11462 ft | 278 kts | 194° |
| 2026-05-04 20:56 | 49.61672 | -2.23850 | 11080 ft | 272 kts | 194° |
| 2026-05-04 20:56 | 49.59866 | -2.24611 | 10713 ft | 267 kts | 194° |
| 2026-05-04 20:56 | 49.58115 | -2.25346 | 10350 ft | 262 kts | 194° |
| 2026-05-04 20:56 | 49.56374 | -2.26075 | 9994 ft | 257 kts | 194° |
| 2026-05-04 20:57 | 49.54631 | -2.26805 | 9600 ft | 255 kts | 194° |
| 2026-05-04 20:57 | 49.52942 | -2.27508 | 9216 ft | 253 kts | 194° |
| 2026-05-04 20:57 | 49.51261 | -2.28284 | 8827 ft | 252 kts | 199° |
| 2026-05-04 20:57 | 49.49627 | -2.29251 | 8436 ft | 251 kts | 200° |
| 2026-05-04 20:58 | 49.48009 | -2.30246 | 8057 ft | 250 kts | 200° |
| 2026-05-04 20:58 | 49.46396 | -2.31244 | 7675 ft | 249 kts | 201° |
| 2026-05-04 20:58 | 49.44787 | -2.32238 | 7298 ft | 249 kts | 201° |
| 2026-05-04 20:58 | 49.43185 | -2.33226 | 6923 ft | 248 kts | 200° |
| 2026-05-04 20:59 | 49.41584 | -2.34213 | 6564 ft | 248 kts | 201° |
| 2026-05-04 20:59 | 49.39996 | -2.35193 | 6165 ft | 243 kts | 200° |
| 2026-05-04 20:59 | 49.38440 | -2.36152 | 5772 ft | 238 kts | 200° |
| 2026-05-04 20:59 | 49.36910 | -2.37095 | 5413 ft | 234 kts | 200° |
| 2026-05-04 21:00 | 49.35421 | -2.38011 | 5122 ft | 227 kts | 200° |
| 2026-05-04 21:00 | 49.33971 | -2.38903 | 4842 ft | 221 kts | 200° |
| 2026-05-04 21:00 | 49.32563 | -2.39771 | 4552 ft | 216 kts | 200° |
| 2026-05-04 21:00 | 49.31196 | -2.40612 | 4316 ft | 205 kts | 201° |
| 2026-05-04 21:01 | 49.29884 | -2.41419 | 4039 ft | 201 kts | 201° |
| 2026-05-04 21:01 | 49.28610 | -2.42194 | 3762 ft | 192 kts | 200° |
| 2026-05-04 21:01 | 49.27376 | -2.42827 | 3493 ft | 182 kts | 188° |
| 2026-05-04 21:01 | 49.26145 | -2.42998 | 3233 ft | 173 kts | 182° |
| 2026-05-04 21:02 | 49.24977 | -2.42966 | 2958 ft | 163 kts | 168° |
| 2026-05-04 21:02 | 49.23893 | -2.42536 | 2670 ft | 159 kts | 162° |
| 2026-05-04 21:02 | 49.22872 | -2.42043 | 2510 ft | 148 kts | 160° |
| 2026-05-04 21:02 | 49.21909 | -2.41571 | 2505 ft | 148 kts | 161° |
| 2026-05-04 21:03 | 49.20982 | -2.40935 | 2521 ft | 145 kts | 137° |
| 2026-05-04 21:03 | 49.20313 | -2.39785 | 2510 ft | 143 kts | 111° |
| 2026-05-04 21:03 | 49.20147 | -2.38307 | 2507 ft | 143 kts | 96° |
| 2026-05-04 21:03 | 49.19957 | -2.36812 | 2459 ft | 144 kts | 100° |
| 2026-05-04 21:04 | 49.19743 | -2.35342 | 2229 ft | 141 kts | 100° |
| 2026-05-04 21:04 | 49.19669 | -2.33885 | 2040 ft | 137 kts | 78° |
| 2026-05-04 21:04 | 49.19773 | -2.32374 | 1836 ft | 141 kts | 82° |
| 2026-05-04 21:04 | 49.19868 | -2.30913 | 1656 ft | 140 kts | 81° |
| 2026-05-04 21:05 | 49.19981 | -2.29406 | 1485 ft | 140 kts | 80° |
| 2026-05-04 21:05 | 49.20103 | -2.27938 | 1298 ft | 136 kts | 80° |
| 2026-05-04 21:05 | 49.20223 | -2.26547 | 1061 ft | 134 kts | 79° |
| 2026-05-04 21:05 | 49.20338 | -2.25120 | 898 ft | 131 kts | 81° |
| 2026-05-04 21:06 | 49.20445 | -2.23717 | 751 ft | 136 kts | 79° |
| 2026-05-04 21:06 | 49.20566 | -2.22282 | 564 ft | 134 kts | 80° |
| 2026-05-04 21:06 | 49.20688 | -2.20866 | 363 ft | 136 kts | 81° |
| 2026-05-04 21:06 | 49.20807 | -2.19509 | 287 ft | 112 kts | 79° |
| 2026-05-04 21:07 | 49.20861 | -2.18795 | 281 ft | 26 kts | 83° |
| 2026-05-04 21:07 | 49.20881 | -2.18565 | 282 ft | 22 kts | 82° |
| 2026-05-04 21:07 | 49.20843 | -2.18406 | 282 ft | 13 kts | 167° |
| 2026-05-04 21:07 | 49.20763 | -2.18409 | 283 ft | 12 kts | 202° |
| 2026-05-04 21:08 | 49.20734 | -2.18515 | 288 ft | 12 kts | 263° |
| 2026-05-04 21:08 | 49.20721 | -2.18639 | 283 ft | 12 kts | 262° |
| 2026-05-04 21:08 | 49.20710 | -2.18788 | 283 ft | 16 kts | 263° |
| 2026-05-04 21:08 | 49.20696 | -2.18969 | 282 ft | 18 kts | 263° |
| 2026-05-04 21:09 | 49.20685 | -2.19157 | 282 ft | 18 kts | 271° |
| 2026-05-04 21:09 | 49.20706 | -2.19348 | 282 ft | 18 kts | 276° |
| 2026-05-04 21:09 | 49.20698 | -2.19543 | 282 ft | 18 kts | 257° |
| 2026-05-04 21:09 | 49.20664 | -2.19638 | 284 ft | 8 kts | 228° |
| 2026-05-04 21:10 | 49.20623 | -2.19711 | 282 ft | 10 kts | 239° |
| 2026-05-04 21:10 | 49.20603 | -2.19772 | 282 ft | 6 kts | 237° |
| 2026-05-04 21:10 | 49.20567 | -2.19803 | 282 ft | 3 kts | 184° |
| 2026-05-04 21:10 | 49.20554 | -2.19801 | 282 ft | 0 kts | 175° |